sensor_id;sensor_type;location;lat;lon;timestamp;P1;durP1;ratioP1;P2;durP2;ratioP2
4460;SDS011;2243;48.812;9.232;2023-04-25T00:01:29;2.00;;;1.90;;
4460;SDS011;2243;48.812;9.232;2023-04-25T00:04:00;2.23;;;2.03;;
4460;SDS011;2243;48.812;9.232;2023-04-25T00:06:32;7.47;;;1.97;;
4460;SDS011;2243;48.812;9.232;2023-04-25T00:09:06;3.37;;;1.80;;
4460;SDS011;2243;48.812;9.232;2023-04-25T00:11:40;2.10;;;1.70;;
4460;SDS011;2243;48.812;9.232;2023-04-25T00:14:11;1.70;;;1.60;;
4460;SDS011;2243;48.812;9.232;2023-04-25T00:16:41;1.83;;;1.73;;
4460;SDS011;2243;48.812;9.232;2023-04-25T00:19:14;1.60;;;1.50;;
4460;SDS011;2243;48.812;9.232;2023-04-25T00:21:45;2.00;;;1.90;;
4460;SDS011;2243;48.812;9.232;2023-04-25T00:24:16;3.37;;;1.80;;
4460;SDS011;2243;48.812;9.232;2023-04-25T00:26:47;1.93;;;1.53;;
4460;SDS011;2243;48.812;9.232;2023-04-25T00:29:18;1.73;;;1.60;;
4460;SDS011;2243;48.812;9.232;2023-04-25T00:31:49;1.87;;;1.77;;
4460;SDS011;2243;48.812;9.232;2023-04-25T00:34:20;2.20;;;2.00;;
4460;SDS011;2243;48.812;9.232;2023-04-25T00:36:51;2.43;;;1.90;;
4460;SDS011;2243;48.812;9.232;2023-04-25T00:39:22;1.57;;;1.47;;
4460;SDS011;2243;48.812;9.232;2023-04-25T00:41:53;1.40;;;1.40;;
4460;SDS011;2243;48.812;9.232;2023-04-25T00:44:25;1.97;;;1.87;;
4460;SDS011;2243;48.812;9.232;2023-04-25T00:46:57;1.60;;;1.50;;
4460;SDS011;2243;48.812;9.232;2023-04-25T00:49:29;7.43;;;1.90;;
4460;SDS011;2243;48.812;9.232;2023-04-25T00:52:00;1.70;;;1.60;;
4460;SDS011;2243;48.812;9.232;2023-04-25T00:54:31;1.87;;;1.67;;
4460;SDS011;2243;48.812;9.232;2023-04-25T00:57:02;3.03;;;1.80;;
4460;SDS011;2243;48.812;9.232;2023-04-25T00:59:33;1.93;;;1.83;;
4460;SDS011;2243;48.812;9.232;2023-04-25T01:02:04;2.80;;;1.80;;
4460;SDS011;2243;48.812;9.232;2023-04-25T01:04:36;1.63;;;1.53;;
4460;SDS011;2243;48.812;9.232;2023-04-25T01:07:07;2.30;;;2.20;;
4460;SDS011;2243;48.812;9.232;2023-04-25T01:09:38;2.37;;;2.27;;
4460;SDS011;2243;48.812;9.232;2023-04-25T01:12:10;1.80;;;1.70;;
4460;SDS011;2243;48.812;9.232;2023-04-25T01:14:41;1.83;;;1.73;;
4460;SDS011;2243;48.812;9.232;2023-04-25T01:17:12;2.10;;;2.00;;
4460;SDS011;2243;48.812;9.232;2023-04-25T01:19:45;2.50;;;2.20;;
4460;SDS011;2243;48.812;9.232;2023-04-25T01:22:18;2.23;;;2.10;;
4460;SDS011;2243;48.812;9.232;2023-04-25T01:24:49;1.90;;;1.80;;
4460;SDS011;2243;48.812;9.232;2023-04-25T01:27:20;2.10;;;2.00;;
4460;SDS011;2243;48.812;9.232;2023-04-25T01:29:53;3.67;;;2.20;;
4460;SDS011;2243;48.812;9.232;2023-04-25T01:32:25;2.30;;;2.10;;
4460;SDS011;2243;48.812;9.232;2023-04-25T01:34:57;2.20;;;1.87;;
4460;SDS011;2243;48.812;9.232;2023-04-25T01:37:28;2.57;;;2.37;;
4460;SDS011;2243;48.812;9.232;2023-04-25T01:39:59;2.20;;;2.10;;
4460;SDS011;2243;48.812;9.232;2023-04-25T01:42:30;2.03;;;1.93;;
4460;SDS011;2243;48.812;9.232;2023-04-25T01:45:02;2.40;;;2.30;;
4460;SDS011;2243;48.812;9.232;2023-04-25T01:47:34;2.70;;;2.50;;
4460;SDS011;2243;48.812;9.232;2023-04-25T01:50:06;2.40;;;2.30;;
4460;SDS011;2243;48.812;9.232;2023-04-25T01:52:38;2.33;;;2.20;;
4460;SDS011;2243;48.812;9.232;2023-04-25T01:55:09;2.30;;;2.10;;
4460;SDS011;2243;48.812;9.232;2023-04-25T01:57:40;2.00;;;1.90;;
4460;SDS011;2243;48.812;9.232;2023-04-25T02:00:11;2.30;;;2.20;;
4460;SDS011;2243;48.812;9.232;2023-04-25T02:02:43;1.90;;;1.80;;
4460;SDS011;2243;48.812;9.232;2023-04-25T02:05:14;2.50;;;2.30;;
4460;SDS011;2243;48.812;9.232;2023-04-25T02:07:45;2.10;;;2.00;;
4460;SDS011;2243;48.812;9.232;2023-04-25T02:10:17;2.10;;;2.10;;
4460;SDS011;2243;48.812;9.232;2023-04-25T02:12:48;2.50;;;2.30;;
4460;SDS011;2243;48.812;9.232;2023-04-25T02:15:19;3.00;;;2.03;;
4460;SDS011;2243;48.812;9.232;2023-04-25T02:17:50;3.43;;;3.00;;
4460;SDS011;2243;48.812;9.232;2023-04-25T02:20:24;2.20;;;2.10;;
4460;SDS011;2243;48.812;9.232;2023-04-25T02:22:55;2.40;;;2.30;;
4460;SDS011;2243;48.812;9.232;2023-04-25T02:25:26;2.07;;;1.97;;
4460;SDS011;2243;48.812;9.232;2023-04-25T02:27:57;2.43;;;2.23;;
4460;SDS011;2243;48.812;9.232;2023-04-25T02:30:28;2.63;;;2.43;;
4460;SDS011;2243;48.812;9.232;2023-04-25T02:32:59;2.23;;;2.13;;
4460;SDS011;2243;48.812;9.232;2023-04-25T02:35:30;6.53;;;2.37;;
4460;SDS011;2243;48.812;9.232;2023-04-25T02:38:01;4.63;;;2.00;;
4460;SDS011;2243;48.812;9.232;2023-04-25T02:40:32;2.00;;;1.97;;
4460;SDS011;2243;48.812;9.232;2023-04-25T02:43:03;1.90;;;1.90;;
4460;SDS011;2243;48.812;9.232;2023-04-25T02:45:34;2.30;;;2.20;;
4460;SDS011;2243;48.812;9.232;2023-04-25T02:48:05;2.17;;;2.07;;
4460;SDS011;2243;48.812;9.232;2023-04-25T02:50:36;2.57;;;2.37;;
4460;SDS011;2243;48.812;9.232;2023-04-25T02:53:07;2.03;;;1.93;;
4460;SDS011;2243;48.812;9.232;2023-04-25T02:55:38;4.10;;;2.60;;
4460;SDS011;2243;48.812;9.232;2023-04-25T02:58:09;3.07;;;2.03;;
4460;SDS011;2243;48.812;9.232;2023-04-25T03:00:40;2.37;;;2.03;;
4460;SDS011;2243;48.812;9.232;2023-04-25T03:03:11;2.40;;;2.20;;
4460;SDS011;2243;48.812;9.232;2023-04-25T03:05:42;2.47;;;2.27;;
4460;SDS011;2243;48.812;9.232;2023-04-25T03:08:14;2.40;;;2.30;;
4460;SDS011;2243;48.812;9.232;2023-04-25T03:10:45;2.47;;;2.37;;
4460;SDS011;2243;48.812;9.232;2023-04-25T03:13:16;2.63;;;2.50;;
4460;SDS011;2243;48.812;9.232;2023-04-25T03:15:47;2.73;;;2.53;;
4460;SDS011;2243;48.812;9.232;2023-04-25T03:18:17;2.40;;;2.23;;
4460;SDS011;2243;48.812;9.232;2023-04-25T03:20:48;4.27;;;2.53;;
4460;SDS011;2243;48.812;9.232;2023-04-25T03:23:19;2.80;;;2.50;;
4460;SDS011;2243;48.812;9.232;2023-04-25T03:25:50;2.30;;;2.20;;
4460;SDS011;2243;48.812;9.232;2023-04-25T03:28:21;2.50;;;2.30;;
4460;SDS011;2243;48.812;9.232;2023-04-25T03:30:52;4.50;;;2.20;;
4460;SDS011;2243;48.812;9.232;2023-04-25T03:33:24;2.50;;;2.40;;
4460;SDS011;2243;48.812;9.232;2023-04-25T03:35:55;2.73;;;2.53;;
4460;SDS011;2243;48.812;9.232;2023-04-25T03:38:26;3.00;;;2.80;;
4460;SDS011;2243;48.812;9.232;2023-04-25T03:40:57;2.10;;;2.00;;
4460;SDS011;2243;48.812;9.232;2023-04-25T03:43:28;3.00;;;2.70;;
4460;SDS011;2243;48.812;9.232;2023-04-25T03:45:59;3.33;;;2.47;;
4460;SDS011;2243;48.812;9.232;2023-04-25T03:48:30;5.10;;;2.50;;
4460;SDS011;2243;48.812;9.232;2023-04-25T03:51:01;3.47;;;2.43;;
4460;SDS011;2243;48.812;9.232;2023-04-25T03:53:32;4.60;;;2.23;;
4460;SDS011;2243;48.812;9.232;2023-04-25T03:56:03;2.97;;;2.70;;
4460;SDS011;2243;48.812;9.232;2023-04-25T03:58:35;2.07;;;2.03;;
4460;SDS011;2243;48.812;9.232;2023-04-25T04:01:06;3.00;;;2.90;;
4460;SDS011;2243;48.812;9.232;2023-04-25T04:03:38;2.17;;;2.07;;
4460;SDS011;2243;48.812;9.232;2023-04-25T04:06:09;2.70;;;2.60;;
4460;SDS011;2243;48.812;9.232;2023-04-25T04:08:40;3.10;;;2.90;;
4460;SDS011;2243;48.812;9.232;2023-04-25T04:11:11;2.80;;;2.53;;
4460;SDS011;2243;48.812;9.232;2023-04-25T04:13:42;3.67;;;2.40;;
4460;SDS011;2243;48.812;9.232;2023-04-25T04:16:14;3.10;;;2.90;;
4460;SDS011;2243;48.812;9.232;2023-04-25T04:18:45;3.00;;;2.90;;
4460;SDS011;2243;48.812;9.232;2023-04-25T04:21:16;3.10;;;2.60;;
4460;SDS011;2243;48.812;9.232;2023-04-25T04:23:47;3.40;;;3.10;;
4460;SDS011;2243;48.812;9.232;2023-04-25T04:26:18;2.53;;;2.43;;
4460;SDS011;2243;48.812;9.232;2023-04-25T04:28:49;3.20;;;2.23;;
4460;SDS011;2243;48.812;9.232;2023-04-25T04:31:22;2.93;;;2.73;;
4460;SDS011;2243;48.812;9.232;2023-04-25T04:33:54;2.50;;;2.30;;
4460;SDS011;2243;48.812;9.232;2023-04-25T04:36:25;2.50;;;2.30;;
4460;SDS011;2243;48.812;9.232;2023-04-25T04:38:56;2.33;;;2.20;;
4460;SDS011;2243;48.812;9.232;2023-04-25T04:41:27;3.10;;;2.90;;
4460;SDS011;2243;48.812;9.232;2023-04-25T04:43:58;6.00;;;2.90;;
4460;SDS011;2243;48.812;9.232;2023-04-25T04:46:31;2.60;;;2.40;;
4460;SDS011;2243;48.812;9.232;2023-04-25T04:49:11;3.23;;;2.70;;
4460;SDS011;2243;48.812;9.232;2023-04-25T04:51:43;2.90;;;2.70;;
4460;SDS011;2243;48.812;9.232;2023-04-25T04:54:14;2.77;;;2.50;;
4460;SDS011;2243;48.812;9.232;2023-04-25T04:56:45;3.07;;;2.87;;
4460;SDS011;2243;48.812;9.232;2023-04-25T04:59:16;3.10;;;2.90;;
4460;SDS011;2243;48.812;9.232;2023-04-25T05:01:47;2.73;;;2.63;;
4460;SDS011;2243;48.812;9.232;2023-04-25T05:04:18;3.33;;;3.13;;
4460;SDS011;2243;48.812;9.232;2023-04-25T05:06:49;3.20;;;3.10;;
4460;SDS011;2243;48.812;9.232;2023-04-25T05:09:20;4.80;;;3.10;;
4460;SDS011;2243;48.812;9.232;2023-04-25T05:11:55;3.00;;;2.80;;
4460;SDS011;2243;48.812;9.232;2023-04-25T05:14:26;3.40;;;2.83;;
4460;SDS011;2243;48.812;9.232;2023-04-25T05:16:57;3.10;;;2.90;;
4460;SDS011;2243;48.812;9.232;2023-04-25T05:19:28;2.97;;;2.73;;
4460;SDS011;2243;48.812;9.232;2023-04-25T05:21:59;3.80;;;3.50;;
4460;SDS011;2243;48.812;9.232;2023-04-25T05:24:30;3.50;;;3.27;;
4460;SDS011;2243;48.812;9.232;2023-04-25T05:27:01;3.77;;;3.53;;
4460;SDS011;2243;48.812;9.232;2023-04-25T05:29:32;3.40;;;3.20;;
4460;SDS011;2243;48.812;9.232;2023-04-25T05:32:04;4.43;;;4.00;;
4460;SDS011;2243;48.812;9.232;2023-04-25T05:34:35;3.83;;;3.50;;
4460;SDS011;2243;48.812;9.232;2023-04-25T05:37:07;4.17;;;3.90;;
4460;SDS011;2243;48.812;9.232;2023-04-25T05:39:38;5.17;;;3.80;;
4460;SDS011;2243;48.812;9.232;2023-04-25T05:42:08;4.80;;;4.40;;
4460;SDS011;2243;48.812;9.232;2023-04-25T05:44:40;4.23;;;3.83;;
4460;SDS011;2243;48.812;9.232;2023-04-25T05:47:11;5.23;;;3.60;;
4460;SDS011;2243;48.812;9.232;2023-04-25T05:49:42;4.50;;;4.10;;
4460;SDS011;2243;48.812;9.232;2023-04-25T05:52:13;4.00;;;3.70;;
4460;SDS011;2243;48.812;9.232;2023-04-25T05:54:45;5.40;;;4.30;;
4460;SDS011;2243;48.812;9.232;2023-04-25T05:57:22;6.37;;;4.43;;
4460;SDS011;2243;48.812;9.232;2023-04-25T05:59:55;5.17;;;4.30;;
4460;SDS011;2243;48.812;9.232;2023-04-25T06:02:26;4.57;;;4.13;;
4460;SDS011;2243;48.812;9.232;2023-04-25T06:04:57;4.37;;;4.00;;
4460;SDS011;2243;48.812;9.232;2023-04-25T06:07:29;4.97;;;4.63;;
4460;SDS011;2243;48.812;9.232;2023-04-25T06:10:00;8.70;;;3.83;;
4460;SDS011;2243;48.812;9.232;2023-04-25T06:12:34;3.97;;;3.67;;
4460;SDS011;2243;48.812;9.232;2023-04-25T06:15:05;4.20;;;3.90;;
4460;SDS011;2243;48.812;9.232;2023-04-25T06:17:56;4.93;;;4.50;;
4460;SDS011;2243;48.812;9.232;2023-04-25T06:20:27;6.50;;;4.90;;
4460;SDS011;2243;48.812;9.232;2023-04-25T06:22:58;3.63;;;3.40;;
4460;SDS011;2243;48.812;9.232;2023-04-25T06:25:29;4.17;;;3.87;;
4460;SDS011;2243;48.812;9.232;2023-04-25T06:28:00;4.30;;;4.00;;
4460;SDS011;2243;48.812;9.232;2023-04-25T06:30:32;4.83;;;4.33;;
4460;SDS011;2243;48.812;9.232;2023-04-25T06:33:02;4.47;;;4.07;;
4460;SDS011;2243;48.812;9.232;2023-04-25T06:35:34;3.73;;;3.43;;
4460;SDS011;2243;48.812;9.232;2023-04-25T06:38:05;8.90;;;3.90;;
4460;SDS011;2243;48.812;9.232;2023-04-25T06:40:36;4.37;;;4.07;;
4460;SDS011;2243;48.812;9.232;2023-04-25T06:43:06;4.40;;;3.67;;
4460;SDS011;2243;48.812;9.232;2023-04-25T06:45:37;4.90;;;3.90;;
4460;SDS011;2243;48.812;9.232;2023-04-25T06:48:08;4.70;;;4.30;;
4460;SDS011;2243;48.812;9.232;2023-04-25T06:50:39;4.47;;;3.80;;
4460;SDS011;2243;48.812;9.232;2023-04-25T06:53:10;4.27;;;3.97;;
4460;SDS011;2243;48.812;9.232;2023-04-25T06:55:41;4.43;;;4.03;;
4460;SDS011;2243;48.812;9.232;2023-04-25T06:58:12;5.13;;;4.53;;
4460;SDS011;2243;48.812;9.232;2023-04-25T07:00:43;4.63;;;4.17;;
4460;SDS011;2243;48.812;9.232;2023-04-25T07:03:14;3.70;;;3.30;;
4460;SDS011;2243;48.812;9.232;2023-04-25T07:05:46;4.73;;;4.33;;
4460;SDS011;2243;48.812;9.232;2023-04-25T07:08:17;3.83;;;3.60;;
4460;SDS011;2243;48.812;9.232;2023-04-25T07:10:48;5.87;;;4.00;;
4460;SDS011;2243;48.812;9.232;2023-04-25T07:13:19;5.67;;;4.07;;
4460;SDS011;2243;48.812;9.232;2023-04-25T07:15:50;7.17;;;4.33;;
4460;SDS011;2243;48.812;9.232;2023-04-25T07:18:21;3.60;;;3.40;;
4460;SDS011;2243;48.812;9.232;2023-04-25T07:20:52;4.17;;;3.87;;
4460;SDS011;2243;48.812;9.232;2023-04-25T07:23:22;4.67;;;3.90;;
4460;SDS011;2243;48.812;9.232;2023-04-25T07:25:54;4.70;;;4.10;;
4460;SDS011;2243;48.812;9.232;2023-04-25T07:28:24;4.90;;;3.80;;
4460;SDS011;2243;48.812;9.232;2023-04-25T07:30:55;4.80;;;4.30;;
4460;SDS011;2243;48.812;9.232;2023-04-25T07:33:30;4.30;;;3.90;;
4460;SDS011;2243;48.812;9.232;2023-04-25T07:36:01;4.13;;;3.83;;
4460;SDS011;2243;48.812;9.232;2023-04-25T07:38:32;4.43;;;4.03;;
4460;SDS011;2243;48.812;9.232;2023-04-25T07:41:03;5.70;;;5.00;;
4460;SDS011;2243;48.812;9.232;2023-04-25T07:43:35;6.00;;;4.17;;
4460;SDS011;2243;48.812;9.232;2023-04-25T07:46:06;4.50;;;4.20;;
4460;SDS011;2243;48.812;9.232;2023-04-25T07:48:36;5.40;;;4.93;;
4460;SDS011;2243;48.812;9.232;2023-04-25T07:51:07;5.90;;;5.10;;
4460;SDS011;2243;48.812;9.232;2023-04-25T07:53:38;6.40;;;5.20;;
4460;SDS011;2243;48.812;9.232;2023-04-25T07:56:09;6.93;;;4.67;;
4460;SDS011;2243;48.812;9.232;2023-04-25T07:58:40;7.93;;;5.20;;
4460;SDS011;2243;48.812;9.232;2023-04-25T08:01:11;5.70;;;5.20;;
4460;SDS011;2243;48.812;9.232;2023-04-25T08:03:42;8.40;;;4.97;;
4460;SDS011;2243;48.812;9.232;2023-04-25T08:06:14;5.43;;;4.93;;
4460;SDS011;2243;48.812;9.232;2023-04-25T08:08:45;6.73;;;5.87;;
4460;SDS011;2243;48.812;9.232;2023-04-25T08:11:16;10.37;;;6.33;;
4460;SDS011;2243;48.812;9.232;2023-04-25T08:13:47;6.33;;;5.90;;
4460;SDS011;2243;48.812;9.232;2023-04-25T08:16:18;6.60;;;5.97;;
4460;SDS011;2243;48.812;9.232;2023-04-25T08:18:50;6.00;;;5.50;;
4460;SDS011;2243;48.812;9.232;2023-04-25T08:21:21;5.70;;;5.10;;
4460;SDS011;2243;48.812;9.232;2023-04-25T08:23:52;5.27;;;4.87;;
4460;SDS011;2243;48.812;9.232;2023-04-25T08:26:24;7.57;;;6.10;;
4460;SDS011;2243;48.812;9.232;2023-04-25T08:28:55;5.50;;;5.00;;
4460;SDS011;2243;48.812;9.232;2023-04-25T08:31:26;7.20;;;5.93;;
4460;SDS011;2243;48.812;9.232;2023-04-25T08:33:57;11.90;;;5.03;;
4460;SDS011;2243;48.812;9.232;2023-04-25T08:36:28;5.97;;;5.37;;
4460;SDS011;2243;48.812;9.232;2023-04-25T08:39:08;6.40;;;5.80;;
4460;SDS011;2243;48.812;9.232;2023-04-25T08:41:40;6.03;;;5.53;;
4460;SDS011;2243;48.812;9.232;2023-04-25T08:44:11;5.93;;;5.23;;
4460;SDS011;2243;48.812;9.232;2023-04-25T08:46:43;5.93;;;5.40;;
4460;SDS011;2243;48.812;9.232;2023-04-25T08:49:20;6.27;;;5.67;;
4460;SDS011;2243;48.812;9.232;2023-04-25T08:51:51;9.03;;;5.40;;
4460;SDS011;2243;48.812;9.232;2023-04-25T08:54:24;6.30;;;5.80;;
4460;SDS011;2243;48.812;9.232;2023-04-25T08:57:05;5.77;;;5.37;;
4460;SDS011;2243;48.812;9.232;2023-04-25T08:59:36;5.40;;;5.00;;
4460;SDS011;2243;48.812;9.232;2023-04-25T09:02:09;8.70;;;5.70;;
4460;SDS011;2243;48.812;9.232;2023-04-25T09:04:44;5.13;;;4.70;;
4460;SDS011;2243;48.812;9.232;2023-04-25T09:07:16;5.43;;;5.03;;
4460;SDS011;2243;48.812;9.232;2023-04-25T09:09:51;5.80;;;5.40;;
4460;SDS011;2243;48.812;9.232;2023-04-25T09:12:22;6.43;;;5.83;;
4460;SDS011;2243;48.812;9.232;2023-04-25T09:17:41;6.60;;;6.00;;
4460;SDS011;2243;48.812;9.232;2023-04-25T09:20:14;5.30;;;4.90;;
4460;SDS011;2243;48.812;9.232;2023-04-25T09:22:45;5.60;;;5.10;;
4460;SDS011;2243;48.812;9.232;2023-04-25T09:25:16;6.37;;;5.80;;
4460;SDS011;2243;48.812;9.232;2023-04-25T09:27:51;8.57;;;6.20;;
4460;SDS011;2243;48.812;9.232;2023-04-25T09:30:31;7.87;;;7.07;;
4460;SDS011;2243;48.812;9.232;2023-04-25T09:33:08;7.50;;;6.80;;
4460;SDS011;2243;48.812;9.232;2023-04-25T09:35:43;7.00;;;6.30;;
4460;SDS011;2243;48.812;9.232;2023-04-25T09:38:15;6.23;;;5.63;;
4460;SDS011;2243;48.812;9.232;2023-04-25T09:40:49;5.43;;;4.93;;
4460;SDS011;2243;48.812;9.232;2023-04-25T09:43:22;4.90;;;4.60;;
4460;SDS011;2243;48.812;9.232;2023-04-25T09:45:55;5.10;;;4.60;;
4460;SDS011;2243;48.812;9.232;2023-04-25T09:48:29;6.93;;;4.70;;
4460;SDS011;2243;48.812;9.232;2023-04-25T09:53:44;2.67;;;2.57;;
4460;SDS011;2243;48.812;9.232;2023-04-25T09:56:16;4.30;;;4.00;;
4460;SDS011;2243;48.812;9.232;2023-04-25T09:58:50;5.13;;;4.53;;
4460;SDS011;2243;48.812;9.232;2023-04-25T10:01:24;4.80;;;4.50;;
4460;SDS011;2243;48.812;9.232;2023-04-25T10:03:57;4.10;;;3.80;;
4460;SDS011;2243;48.812;9.232;2023-04-25T10:06:31;3.67;;;3.47;;
4460;SDS011;2243;48.812;9.232;2023-04-25T10:09:04;5.17;;;4.40;;
4460;SDS011;2243;48.812;9.232;2023-04-25T10:11:38;4.50;;;4.20;;
4460;SDS011;2243;48.812;9.232;2023-04-25T10:14:10;4.57;;;4.23;;
4460;SDS011;2243;48.812;9.232;2023-04-25T10:16:43;4.17;;;3.87;;
4460;SDS011;2243;48.812;9.232;2023-04-25T10:19:14;4.70;;;4.27;;
4460;SDS011;2243;48.812;9.232;2023-04-25T10:21:52;5.67;;;5.17;;
4460;SDS011;2243;48.812;9.232;2023-04-25T10:24:37;5.80;;;4.60;;
4460;SDS011;2243;48.812;9.232;2023-04-25T10:27:09;5.43;;;4.30;;
4460;SDS011;2243;48.812;9.232;2023-04-25T10:29:41;4.60;;;4.30;;
4460;SDS011;2243;48.812;9.232;2023-04-25T10:32:13;4.67;;;4.37;;
4460;SDS011;2243;48.812;9.232;2023-04-25T10:34:45;4.70;;;4.37;;
4460;SDS011;2243;48.812;9.232;2023-04-25T10:37:18;5.37;;;4.80;;
4460;SDS011;2243;48.812;9.232;2023-04-25T10:39:49;3.80;;;3.60;;
4460;SDS011;2243;48.812;9.232;2023-04-25T10:42:20;5.00;;;4.17;;
4460;SDS011;2243;48.812;9.232;2023-04-25T10:45:01;6.17;;;3.70;;
4460;SDS011;2243;48.812;9.232;2023-04-25T10:47:35;4.83;;;4.53;;
4460;SDS011;2243;48.812;9.232;2023-04-25T10:50:07;4.60;;;4.30;;
4460;SDS011;2243;48.812;9.232;2023-04-25T10:52:39;5.13;;;4.63;;
4460;SDS011;2243;48.812;9.232;2023-04-25T10:55:10;5.23;;;4.73;;
4460;SDS011;2243;48.812;9.232;2023-04-25T10:57:42;5.30;;;4.80;;
4460;SDS011;2243;48.812;9.232;2023-04-25T11:00:18;7.43;;;4.93;;
4460;SDS011;2243;48.812;9.232;2023-04-25T11:02:57;6.47;;;5.80;;
4460;SDS011;2243;48.812;9.232;2023-04-25T11:08:13;5.10;;;4.70;;
4460;SDS011;2243;48.812;9.232;2023-04-25T11:10:47;5.10;;;3.60;;
4460;SDS011;2243;48.812;9.232;2023-04-25T11:13:21;4.90;;;3.10;;
4460;SDS011;2243;48.812;9.232;2023-04-25T11:15:52;3.63;;;3.10;;
4460;SDS011;2243;48.812;9.232;2023-04-25T11:18:41;4.00;;;3.70;;
4460;SDS011;2243;48.812;9.232;2023-04-25T11:21:13;4.20;;;3.97;;
4460;SDS011;2243;48.812;9.232;2023-04-25T11:23:45;4.27;;;3.97;;
4460;SDS011;2243;48.812;9.232;2023-04-25T11:26:18;4.40;;;3.80;;
4460;SDS011;2243;48.812;9.232;2023-04-25T11:28:50;4.27;;;3.00;;
4460;SDS011;2243;48.812;9.232;2023-04-25T11:31:21;3.57;;;3.27;;
4460;SDS011;2243;48.812;9.232;2023-04-25T11:33:53;3.83;;;3.53;;
4460;SDS011;2243;48.812;9.232;2023-04-25T11:36:27;3.80;;;3.50;;
4460;SDS011;2243;48.812;9.232;2023-04-25T11:38:58;4.37;;;3.97;;
4460;SDS011;2243;48.812;9.232;2023-04-25T11:41:30;5.10;;;4.60;;
4460;SDS011;2243;48.812;9.232;2023-04-25T11:44:01;4.00;;;3.80;;
4460;SDS011;2243;48.812;9.232;2023-04-25T11:46:35;4.70;;;4.30;;
4460;SDS011;2243;48.812;9.232;2023-04-25T11:49:07;5.27;;;4.87;;
4460;SDS011;2243;48.812;9.232;2023-04-25T11:51:47;4.83;;;4.43;;
4460;SDS011;2243;48.812;9.232;2023-04-25T11:54:18;4.87;;;4.47;;
4460;SDS011;2243;48.812;9.232;2023-04-25T11:56:49;4.60;;;4.30;;
4460;SDS011;2243;48.812;9.232;2023-04-25T11:59:24;4.63;;;4.07;;
4460;SDS011;2243;48.812;9.232;2023-04-25T12:01:56;4.93;;;4.53;;
4460;SDS011;2243;48.812;9.232;2023-04-25T12:04:29;4.80;;;4.40;;
4460;SDS011;2243;48.812;9.232;2023-04-25T12:07:02;4.30;;;4.00;;
4460;SDS011;2243;48.812;9.232;2023-04-25T12:09:33;5.50;;;5.00;;
4460;SDS011;2243;48.812;9.232;2023-04-25T12:12:04;6.67;;;5.30;;
4460;SDS011;2243;48.812;9.232;2023-04-25T12:14:36;5.20;;;4.70;;
4460;SDS011;2243;48.812;9.232;2023-04-25T12:17:07;5.70;;;5.20;;
4460;SDS011;2243;48.812;9.232;2023-04-25T12:19:39;6.03;;;5.30;;
4460;SDS011;2243;48.812;9.232;2023-04-25T12:22:21;6.23;;;5.60;;
4460;SDS011;2243;48.812;9.232;2023-04-25T12:24:54;6.60;;;6.00;;
4460;SDS011;2243;48.812;9.232;2023-04-25T12:27:28;6.83;;;6.17;;
4460;SDS011;2243;48.812;9.232;2023-04-25T12:30:01;8.80;;;5.63;;
4460;SDS011;2243;48.812;9.232;2023-04-25T12:32:33;10.70;;;6.00;;
4460;SDS011;2243;48.812;9.232;2023-04-25T12:35:05;6.37;;;5.83;;
4460;SDS011;2243;48.812;9.232;2023-04-25T12:37:36;7.03;;;6.37;;
4460;SDS011;2243;48.812;9.232;2023-04-25T12:40:07;7.33;;;6.13;;
4460;SDS011;2243;48.812;9.232;2023-04-25T12:42:40;6.00;;;5.47;;
4460;SDS011;2243;48.812;9.232;2023-04-25T12:45:11;8.77;;;7.07;;
4460;SDS011;2243;48.812;9.232;2023-04-25T12:47:41;12.50;;;6.93;;
4460;SDS011;2243;48.812;9.232;2023-04-25T12:50:12;7.43;;;6.70;;
4460;SDS011;2243;48.812;9.232;2023-04-25T12:52:43;8.73;;;7.20;;
4460;SDS011;2243;48.812;9.232;2023-04-25T12:55:14;8.07;;;6.93;;
4460;SDS011;2243;48.812;9.232;2023-04-25T12:57:45;9.13;;;7.60;;
4460;SDS011;2243;48.812;9.232;2023-04-25T13:00:16;9.57;;;7.77;;
4460;SDS011;2243;48.812;9.232;2023-04-25T13:02:50;11.57;;;8.17;;
4460;SDS011;2243;48.812;9.232;2023-04-25T13:05:21;11.70;;;8.00;;
4460;SDS011;2243;48.812;9.232;2023-04-25T13:07:52;9.23;;;7.63;;
4460;SDS011;2243;48.812;9.232;2023-04-25T13:10:23;8.93;;;7.40;;
4460;SDS011;2243;48.812;9.232;2023-04-25T13:12:54;12.37;;;7.60;;
4460;SDS011;2243;48.812;9.232;2023-04-25T13:15:25;9.40;;;8.23;;
4460;SDS011;2243;48.812;9.232;2023-04-25T13:17:57;7.87;;;7.07;;
4460;SDS011;2243;48.812;9.232;2023-04-25T13:20:28;10.07;;;7.20;;
4460;SDS011;2243;48.812;9.232;2023-04-25T13:22:58;10.60;;;7.57;;
4460;SDS011;2243;48.812;9.232;2023-04-25T13:25:31;10.90;;;7.77;;
4460;SDS011;2243;48.812;9.232;2023-04-25T13:28:03;9.07;;;7.00;;
4460;SDS011;2243;48.812;9.232;2023-04-25T13:30:34;8.73;;;7.03;;
4460;SDS011;2243;48.812;9.232;2023-04-25T13:33:05;11.40;;;8.47;;
4460;SDS011;2243;48.812;9.232;2023-04-25T13:35:37;8.53;;;7.70;;
4460;SDS011;2243;48.812;9.232;2023-04-25T13:38:09;8.53;;;6.97;;
4460;SDS011;2243;48.812;9.232;2023-04-25T13:40:40;8.43;;;7.03;;
4460;SDS011;2243;48.812;9.232;2023-04-25T13:43:11;11.27;;;7.30;;
4460;SDS011;2243;48.812;9.232;2023-04-25T13:45:42;10.20;;;7.87;;
4460;SDS011;2243;48.812;9.232;2023-04-25T13:48:13;8.53;;;7.53;;
4460;SDS011;2243;48.812;9.232;2023-04-25T13:50:43;9.43;;;7.60;;
4460;SDS011;2243;48.812;9.232;2023-04-25T13:53:15;12.37;;;10.00;;
4460;SDS011;2243;48.812;9.232;2023-04-25T13:55:46;13.20;;;10.77;;
4460;SDS011;2243;48.812;9.232;2023-04-25T13:58:18;17.23;;;10.70;;
4460;SDS011;2243;48.812;9.232;2023-04-25T14:00:50;16.43;;;11.60;;
4460;SDS011;2243;48.812;9.232;2023-04-25T14:03:21;13.53;;;10.77;;
4460;SDS011;2243;48.812;9.232;2023-04-25T14:05:52;11.93;;;10.37;;
4460;SDS011;2243;48.812;9.232;2023-04-25T14:08:23;15.13;;;10.67;;
4460;SDS011;2243;48.812;9.232;2023-04-25T14:10:54;14.60;;;10.73;;
4460;SDS011;2243;48.812;9.232;2023-04-25T14:13:25;10.10;;;9.10;;
4460;SDS011;2243;48.812;9.232;2023-04-25T14:15:56;15.70;;;8.63;;
4460;SDS011;2243;48.812;9.232;2023-04-25T14:18:27;13.67;;;9.20;;
4460;SDS011;2243;48.812;9.232;2023-04-25T14:20:58;10.40;;;8.10;;
4460;SDS011;2243;48.812;9.232;2023-04-25T14:23:30;10.23;;;9.23;;
4460;SDS011;2243;48.812;9.232;2023-04-25T14:26:01;8.93;;;7.37;;
4460;SDS011;2243;48.812;9.232;2023-04-25T14:28:32;9.57;;;7.80;;
4460;SDS011;2243;48.812;9.232;2023-04-25T14:31:03;9.73;;;7.57;;
4460;SDS011;2243;48.812;9.232;2023-04-25T14:33:34;8.10;;;7.30;;
4460;SDS011;2243;48.812;9.232;2023-04-25T14:36:07;9.10;;;7.53;;
4460;SDS011;2243;48.812;9.232;2023-04-25T14:38:38;11.80;;;7.53;;
4460;SDS011;2243;48.812;9.232;2023-04-25T14:41:09;8.73;;;6.90;;
4460;SDS011;2243;48.812;9.232;2023-04-25T14:43:41;8.03;;;6.70;;
4460;SDS011;2243;48.812;9.232;2023-04-25T14:46:12;7.63;;;6.97;;
4460;SDS011;2243;48.812;9.232;2023-04-25T14:48:43;7.80;;;7.00;;
4460;SDS011;2243;48.812;9.232;2023-04-25T14:51:14;7.60;;;6.80;;
4460;SDS011;2243;48.812;9.232;2023-04-25T14:53:45;9.13;;;6.40;;
4460;SDS011;2243;48.812;9.232;2023-04-25T14:56:16;9.73;;;7.13;;
4460;SDS011;2243;48.812;9.232;2023-04-25T14:58:47;9.53;;;6.43;;
4460;SDS011;2243;48.812;9.232;2023-04-25T15:01:18;8.70;;;7.33;;
4460;SDS011;2243;48.812;9.232;2023-04-25T15:03:51;7.20;;;6.60;;
4460;SDS011;2243;48.812;9.232;2023-04-25T15:06:22;8.10;;;7.20;;
4460;SDS011;2243;48.812;9.232;2023-04-25T15:08:56;7.93;;;7.20;;
4460;SDS011;2243;48.812;9.232;2023-04-25T15:11:27;6.90;;;6.30;;
4460;SDS011;2243;48.812;9.232;2023-04-25T15:13:58;7.57;;;6.87;;
4460;SDS011;2243;48.812;9.232;2023-04-25T15:16:29;6.80;;;6.27;;
4460;SDS011;2243;48.812;9.232;2023-04-25T15:19:01;7.50;;;6.83;;
4460;SDS011;2243;48.812;9.232;2023-04-25T15:21:34;7.03;;;6.37;;
4460;SDS011;2243;48.812;9.232;2023-04-25T15:24:05;9.33;;;6.53;;
4460;SDS011;2243;48.812;9.232;2023-04-25T15:26:36;10.50;;;6.10;;
4460;SDS011;2243;48.812;9.232;2023-04-25T15:29:07;7.53;;;6.73;;
4460;SDS011;2243;48.812;9.232;2023-04-25T15:31:38;6.03;;;4.70;;
4460;SDS011;2243;48.812;9.232;2023-04-25T15:34:09;6.20;;;5.63;;
4460;SDS011;2243;48.812;9.232;2023-04-25T15:36:41;5.33;;;4.93;;
4460;SDS011;2243;48.812;9.232;2023-04-25T15:39:12;5.87;;;4.90;;
4460;SDS011;2243;48.812;9.232;2023-04-25T15:41:43;6.20;;;5.00;;
4460;SDS011;2243;48.812;9.232;2023-04-25T15:44:14;4.37;;;4.00;;
4460;SDS011;2243;48.812;9.232;2023-04-25T15:46:45;5.30;;;4.80;;
4460;SDS011;2243;48.812;9.232;2023-04-25T15:49:16;5.50;;;5.00;;
4460;SDS011;2243;48.812;9.232;2023-04-25T15:51:48;6.17;;;5.57;;